PWSweather.com
Personal Weather Stations
Station Observations
ME1989
Sicily, Barcellona Pozzo Di GottoIT

SicilyBarcellona Pozzo Di GottoIT

Lat: 38.1487398, Lon: 15.2113962

Elevation: 131

Station Type: Peet Bros

Latest ConditionsUpdated 6:50:01 PM GMT+01:01 Friday, Dec 2, 2016
Currently Today's Max Today's Min Today's Average
Temperature 55.8°F13.2°C 61.9°F16.6°C 54.5°F12.5°C 58.4°F14.7°C
Dew Point 45.0°F7.2°C 49.4°F9.7°C 45.0°F7.2°C 46.9°F8.3°C
Winds 6.9 mph S11.1 kmh S 13.8 mph WNW22.2 kmh WNW - 7.0 mph 11.3 kmh
Wind Gusts 10.4 mph16.7 kmh 19.6 mph31.5 kmh - -
Humidity 67% 74% 58% 66%
Pressure 30.08 in1018.6 mb 30.19 in1022.4 mb 30.07 in1018.3 mb -
Precipitation - 0.01 in0.3 mm - -
Hour Temp Dew Point Humidity Winds Wind Gusts Pressure Precip Precip Rate Daily Precip Total
06:50 PM 55.8°F13.2°C 45.0°F7.2°C 67% 6.9 mph S11.1 kmh S 10.4 mph16.7 kmh 30.08 in1018.6 mb - 0.00 in0.0 mm 0.01 in0.3 mm
06:40 PM 55.9°F13.3°C 45.1°F7.3°C 67% 6.9 mph S11.1 kmh S 8.1 mph13.0 kmh 30.09 in1019.0 mb - 0.00 in0.0 mm 0.01 in0.3 mm
06:30 PM 55.7°F13.2°C 45.3°F7.4°C 68% 6.9 mph S11.1 kmh S 9.2 mph14.8 kmh 30.09 in1019.0 mb - 0.00 in0.0 mm 0.01 in0.3 mm
06:20 PM 56.1°F13.4°C 45.2°F7.3°C 67% 5.8 mph S9.3 kmh S 8.1 mph13.0 kmh 30.09 in1019.0 mb - 0.00 in0.0 mm 0.01 in0.3 mm
06:10 PM 56.3°F13.5°C 45.5°F7.5°C 67% 5.8 mph S9.3 kmh S 6.9 mph11.1 kmh 30.08 in1018.6 mb - 0.00 in0.0 mm 0.01 in0.3 mm
06:00 PM 56.6°F13.7°C 45.4°F7.4°C 66% 5.8 mph SSW9.3 kmh SSW 9.2 mph14.8 kmh 30.08 in1018.6 mb - 0.00 in0.0 mm 0.01 in0.3 mm
05:50 PM 56.8°F13.8°C 45.5°F7.5°C 66% 5.8 mph S9.3 kmh S 6.9 mph11.1 kmh 30.08 in1018.6 mb - 0.00 in0.0 mm 0.01 in0.3 mm
05:40 PM 57.3°F14.1°C 46.1°F7.8°C 66% 4.6 mph S7.4 kmh S 5.8 mph9.3 kmh 30.08 in1018.6 mb - 0.00 in0.0 mm 0.01 in0.3 mm
05:30 PM 57.7°F14.3°C 46.0°F7.8°C 65% 4.6 mph SSW7.4 kmh SSW 5.8 mph9.3 kmh 30.08 in1018.6 mb - 0.00 in0.0 mm 0.01 in0.3 mm
05:20 PM 59.1°F15.1°C 45.6°F7.6°C 61% 2.3 mph SW3.7 kmh SW 3.5 mph5.6 kmh 30.08 in1018.6 mb - 0.00 in0.0 mm 0.01 in0.3 mm
05:10 PM 59.4°F15.2°C 46.4°F8.0°C 62% 4.6 mph W7.4 kmh W 5.8 mph9.3 kmh 30.08 in1018.6 mb - 0.00 in0.0 mm 0.01 in0.3 mm
05:00 PM 59.7°F15.4°C 45.8°F7.7°C 60% 6.9 mph W11.1 kmh W 8.1 mph13.0 kmh 30.08 in1018.6 mb - 0.00 in0.0 mm 0.01 in0.3 mm
04:50 PM 59.8°F15.4°C 45.0°F7.2°C 58% 9.2 mph W14.8 kmh W 11.5 mph18.5 kmh 30.08 in1018.6 mb - 0.00 in0.0 mm 0.01 in0.3 mm
04:40 PM 59.8°F15.4°C 45.5°F7.5°C 59% 10.4 mph W16.7 kmh W 15.0 mph24.1 kmh 30.08 in1018.6 mb - 0.00 in0.0 mm 0.01 in0.3 mm
04:30 PM 59.7°F15.4°C 45.8°F7.7°C 60% 9.2 mph WNW14.8 kmh WNW 13.8 mph22.2 kmh 30.08 in1018.6 mb - 0.00 in0.0 mm 0.01 in0.3 mm
04:20 PM 59.8°F15.4°C 46.7°F8.2°C 62% 9.2 mph W14.8 kmh W 12.7 mph20.4 kmh 30.08 in1018.6 mb - 0.00 in0.0 mm 0.01 in0.3 mm
04:10 PM 60.2°F15.7°C 47.2°F8.4°C 62% 8.1 mph WNW13.0 kmh WNW 10.4 mph16.7 kmh 30.08 in1018.6 mb - 0.00 in0.0 mm 0.01 in0.3 mm
04:00 PM 60.4°F15.8°C 47.4°F8.6°C 62% 9.2 mph W14.8 kmh W 12.7 mph20.4 kmh 30.08 in1018.6 mb - 0.00 in0.0 mm 0.01 in0.3 mm
03:50 PM 60.4°F15.8°C 47.3°F8.5°C 62% 10.4 mph WNW16.7 kmh WNW 11.5 mph18.5 kmh 30.08 in1018.6 mb - 0.00 in0.0 mm 0.01 in0.3 mm
03:40 PM 60.4°F15.8°C 47.8°F8.8°C 63% 11.5 mph WNW18.5 kmh WNW 13.8 mph22.2 kmh 30.07 in1018.3 mb - 0.00 in0.0 mm 0.01 in0.3 mm
03:30 PM 60.7°F15.9°C 48.0°F8.9°C 63% 11.5 mph WNW18.5 kmh WNW 16.1 mph25.9 kmh 30.07 in1018.3 mb - 0.00 in0.0 mm 0.01 in0.3 mm
03:20 PM 60.8°F16.0°C 48.1°F8.9°C 63% 10.4 mph WNW16.7 kmh WNW 15.0 mph24.1 kmh 30.07 in1018.3 mb - 0.00 in0.0 mm 0.01 in0.3 mm
03:10 PM 61.0°F16.1°C 47.9°F8.8°C 62% 9.2 mph WNW14.8 kmh WNW 10.4 mph16.7 kmh 30.07 in1018.3 mb - 0.00 in0.0 mm 0.01 in0.3 mm
03:00 PM 61.1°F16.2°C 48.4°F9.1°C 63% 10.4 mph WNW16.7 kmh WNW 15.0 mph24.1 kmh 30.08 in1018.6 mb - 0.00 in0.0 mm 0.01 in0.3 mm
02:50 PM 61.0°F16.1°C 47.9°F8.8°C 62% 11.5 mph W18.5 kmh W 12.7 mph20.4 kmh 30.08 in1018.6 mb - 0.00 in0.0 mm 0.01 in0.3 mm
02:40 PM 61.1°F16.2°C 48.4°F9.1°C 63% 10.4 mph WNW16.7 kmh WNW 12.7 mph20.4 kmh 30.08 in1018.6 mb - 0.00 in0.0 mm 0.01 in0.3 mm
02:30 PM 61.3°F16.3°C 49.4°F9.7°C 65% 9.2 mph NW14.8 kmh NW 10.4 mph16.7 kmh 30.08 in1018.6 mb - 0.00 in0.0 mm 0.01 in0.3 mm
02:20 PM 61.2°F16.2°C 49.3°F9.6°C 65% 10.4 mph WNW16.7 kmh WNW 12.7 mph20.4 kmh 30.08 in1018.6 mb - 0.00 in0.0 mm 0.01 in0.3 mm
02:10 PM 61.1°F16.2°C 48.8°F9.3°C 64% 13.8 mph WNW22.2 kmh WNW 19.6 mph31.5 kmh 30.08 in1018.6 mb - 0.00 in0.0 mm 0.01 in0.3 mm
02:00 PM 61.0°F16.1°C 49.2°F9.6°C 65% 13.8 mph WNW22.2 kmh WNW 16.1 mph25.9 kmh 30.08 in1018.6 mb - 0.00 in0.0 mm 0.01 in0.3 mm
01:50 PM 61.7°F16.5°C 48.5°F9.2°C 62% 10.4 mph NW16.7 kmh NW 11.5 mph18.5 kmh 30.08 in1018.6 mb - 0.00 in0.0 mm 0.01 in0.3 mm
01:40 PM 61.5°F16.4°C 47.9°F8.8°C 61% 12.7 mph WNW20.4 kmh WNW 16.1 mph25.9 kmh 30.08 in1018.6 mb - 0.00 in0.0 mm 0.01 in0.3 mm
01:30 PM 61.4°F16.3°C 47.3°F8.5°C 60% 11.5 mph WNW18.5 kmh WNW 15.0 mph24.1 kmh 30.08 in1018.6 mb - 0.01 in0.3 mm 0.01 in0.3 mm
01:20 PM 61.1°F16.2°C 47.1°F8.4°C 60% 11.5 mph WNW18.5 kmh WNW 16.1 mph25.9 kmh 30.09 in1019.0 mb - 0.00 in0.0 mm 0.01 in0.3 mm
01:10 PM 61.8°F16.6°C 48.2°F9.0°C 61% 9.2 mph W14.8 kmh W 13.8 mph22.2 kmh 30.09 in1019.0 mb - 0.00 in0.0 mm 0.01 in0.3 mm
01:00 PM 61.5°F16.4°C 48.4°F9.1°C 62% 11.5 mph WNW18.5 kmh WNW 13.8 mph22.2 kmh 30.09 in1019.0 mb - 0.00 in0.0 mm 0.01 in0.3 mm
12:50 PM 61.4°F16.3°C 47.8°F8.8°C 61% 10.4 mph WNW16.7 kmh WNW 13.8 mph22.2 kmh 30.10 in1019.3 mb - 0.00 in0.0 mm 0.01 in0.3 mm
12:40 PM 61.2°F16.2°C 47.2°F8.4°C 60% 12.7 mph W20.4 kmh W 13.8 mph22.2 kmh 30.10 in1019.3 mb - 0.00 in0.0 mm 0.01 in0.3 mm
12:30 PM 61.5°F16.4°C 47.9°F8.8°C 61% 11.5 mph W18.5 kmh W 15.0 mph24.1 kmh 30.10 in1019.3 mb - 0.00 in0.0 mm 0.01 in0.3 mm
12:20 PM 61.5°F16.4°C 48.4°F9.1°C 62% 6.9 mph WNW11.1 kmh WNW 10.4 mph16.7 kmh 30.10 in1019.3 mb - 0.00 in0.0 mm 0.01 in0.3 mm
12:10 PM 61.1°F16.2°C 47.1°F8.4°C 60% 11.5 mph WNW18.5 kmh WNW 12.7 mph20.4 kmh 30.11 in1019.6 mb - 0.00 in0.0 mm 0.01 in0.3 mm
12:00 PM 61.9°F16.6°C 47.4°F8.6°C 59% 12.7 mph W20.4 kmh W 16.1 mph25.9 kmh 30.11 in1019.6 mb - 0.00 in0.0 mm 0.01 in0.3 mm
11:50 AM 61.4°F16.3°C 47.8°F8.8°C 61% 12.7 mph W20.4 kmh W 15.0 mph24.1 kmh 30.11 in1019.6 mb - 0.00 in0.0 mm 0.01 in0.3 mm
11:40 AM 61.4°F16.3°C 47.8°F8.8°C 61% 10.4 mph WNW16.7 kmh WNW 15.0 mph24.1 kmh 30.11 in1019.6 mb - 0.00 in0.0 mm 0.01 in0.3 mm
11:30 AM 61.4°F16.3°C 48.3°F9.1°C 62% 10.4 mph WNW16.7 kmh WNW 12.7 mph20.4 kmh 30.12 in1020.0 mb - 0.00 in0.0 mm 0.01 in0.3 mm
11:20 AM 61.5°F16.4°C 48.4°F9.1°C 62% 8.1 mph WNW13.0 kmh WNW 10.4 mph16.7 kmh 30.12 in1020.0 mb - 0.00 in0.0 mm 0.01 in0.3 mm
11:10 AM 61.3°F16.3°C 48.2°F9.0°C 62% 10.4 mph W16.7 kmh W 13.8 mph22.2 kmh 30.12 in1020.0 mb - 0.00 in0.0 mm 0.01 in0.3 mm
11:00 AM 60.9°F16.1°C 47.8°F8.8°C 62% 12.7 mph WNW20.4 kmh WNW 17.3 mph27.8 kmh 30.12 in1020.0 mb - 0.00 in0.0 mm 0.01 in0.3 mm
10:50 AM 61.4°F16.3°C 47.8°F8.8°C 61% 11.5 mph WSW18.5 kmh WSW 15.0 mph24.1 kmh 30.13 in1020.3 mb - 0.00 in0.0 mm 0.01 in0.3 mm
10:40 AM 61.0°F16.1°C 47.5°F8.6°C 61% 11.5 mph W18.5 kmh W 15.0 mph24.1 kmh 30.13 in1020.3 mb - 0.00 in0.0 mm 0.01 in0.3 mm
10:30 AM 61.1°F16.2°C 48.4°F9.1°C 63% 10.4 mph W16.7 kmh W 15.0 mph24.1 kmh 30.13 in1020.3 mb - 0.00 in0.0 mm 0.01 in0.3 mm
10:20 AM 61.1°F16.2°C 48.4°F9.1°C 63% 9.2 mph W14.8 kmh W 10.4 mph16.7 kmh 30.13 in1020.3 mb - 0.00 in0.0 mm 0.01 in0.3 mm
10:10 AM 60.9°F16.1°C 47.8°F8.8°C 62% 10.4 mph WSW16.7 kmh WSW 13.8 mph22.2 kmh 30.14 in1020.7 mb - 0.00 in0.0 mm 0.01 in0.3 mm
10:00 AM 60.8°F16.0°C 48.5°F9.2°C 64% 6.9 mph W11.1 kmh W 9.2 mph14.8 kmh 30.14 in1020.7 mb - 0.00 in0.0 mm 0.01 in0.3 mm
09:50 AM 60.6°F15.9°C 48.3°F9.1°C 64% 4.6 mph WSW7.4 kmh WSW 9.2 mph14.8 kmh 30.14 in1020.7 mb - 0.00 in0.0 mm 0.01 in0.3 mm
09:40 AM 59.9°F15.5°C 46.9°F8.3°C 62% 4.6 mph SW7.4 kmh SW 9.2 mph14.8 kmh 30.14 in1020.7 mb - 0.00 in0.0 mm 0.01 in0.3 mm
09:30 AM 59.7°F15.4°C 47.5°F8.6°C 64% Calm Calm 6.9 mph11.1 kmh 30.14 in1020.7 mb - 0.00 in0.0 mm 0.01 in0.3 mm
09:20 AM 59.1°F15.1°C 47.0°F8.3°C 64% 4.6 mph SW7.4 kmh SW 4.6 mph7.4 kmh 30.14 in1020.7 mb - 0.00 in0.0 mm 0.01 in0.3 mm
09:10 AM 58.9°F14.9°C 47.1°F8.4°C 65% Calm Calm -- 30.14 in1020.7 mb - 0.00 in0.0 mm 0.01 in0.3 mm
09:00 AM 58.3°F14.6°C 47.0°F8.3°C 66% 4.6 mph SSW7.4 kmh SSW 6.9 mph11.1 kmh 30.14 in1020.7 mb - 0.00 in0.0 mm 0.01 in0.3 mm
08:50 AM 57.6°F14.2°C 46.7°F8.2°C 67% 6.9 mph SSW11.1 kmh SSW 8.1 mph13.0 kmh 30.14 in1020.7 mb - 0.00 in0.0 mm 0.01 in0.3 mm
08:40 AM 56.8°F13.8°C 46.3°F7.9°C 68% 5.8 mph SW9.3 kmh SW 8.1 mph13.0 kmh 30.14 in1020.7 mb - 0.00 in0.0 mm 0.01 in0.3 mm
08:30 AM 56.3°F13.5°C 46.7°F8.2°C 70% 4.6 mph SSW7.4 kmh SSW 9.2 mph14.8 kmh 30.13 in1020.3 mb - 0.00 in0.0 mm 0.01 in0.3 mm
08:20 AM 55.9°F13.3°C 46.6°F8.1°C 71% 4.6 mph SSW7.4 kmh SSW 6.9 mph11.1 kmh 30.13 in1020.3 mb - 0.00 in0.0 mm 0.01 in0.3 mm
08:10 AM 55.8°F13.2°C 46.1°F7.8°C 70% 6.9 mph SSW11.1 kmh SSW 6.9 mph11.1 kmh 30.13 in1020.3 mb - 0.00 in0.0 mm 0.01 in0.3 mm
08:00 AM 55.5°F13.1°C 46.6°F8.1°C 72% 4.6 mph SSW7.4 kmh SSW 6.9 mph11.1 kmh 30.13 in1020.3 mb - 0.00 in0.0 mm 0.01 in0.3 mm
07:50 AM 55.6°F13.1°C 46.4°F8.0°C 71% 4.6 mph SSW7.4 kmh SSW 5.8 mph9.3 kmh 30.13 in1020.3 mb - 0.00 in0.0 mm 0.01 in0.3 mm
07:40 AM 55.2°F12.9°C 46.6°F8.1°C 73% 6.9 mph SSW11.1 kmh SSW 8.1 mph13.0 kmh 30.13 in1020.3 mb - 0.00 in0.0 mm 0.01 in0.3 mm
07:30 AM 54.5°F12.5°C 46.4°F8.0°C 74% 5.8 mph S9.3 kmh S 6.9 mph11.1 kmh 30.13 in1020.3 mb - 0.00 in0.0 mm 0.01 in0.3 mm
07:20 AM 54.5°F12.5°C 46.4°F8.0°C 74% 5.8 mph S9.3 kmh S 6.9 mph11.1 kmh 30.13 in1020.3 mb - 0.00 in0.0 mm 0.01 in0.3 mm
07:10 AM 54.6°F12.6°C 46.5°F8.1°C 74% 4.6 mph S7.4 kmh S 6.9 mph11.1 kmh 30.13 in1020.3 mb - 0.00 in0.0 mm 0.01 in0.3 mm
07:00 AM 54.6°F12.6°C 46.5°F8.1°C 74% 4.6 mph SSW7.4 kmh SSW 5.8 mph9.3 kmh 30.13 in1020.3 mb - 0.00 in0.0 mm 0.01 in0.3 mm
06:50 AM 54.5°F12.5°C 46.4°F8.0°C 74% 5.8 mph SSW9.3 kmh SSW 8.1 mph13.0 kmh 30.13 in1020.3 mb - 0.00 in0.0 mm 0.01 in0.3 mm
06:40 AM 55.2°F12.9°C 46.3°F7.9°C 72% 5.8 mph S9.3 kmh S 6.9 mph11.1 kmh 30.13 in1020.3 mb - 0.00 in0.0 mm 0.01 in0.3 mm
06:30 AM 55.6°F13.1°C 46.7°F8.2°C 72% 6.9 mph S11.1 kmh S 6.9 mph11.1 kmh 30.13 in1020.3 mb - 0.00 in0.0 mm 0.01 in0.3 mm
06:20 AM 55.7°F13.2°C 46.4°F8.0°C 71% 6.9 mph SSW11.1 kmh SSW 8.1 mph13.0 kmh 30.13 in1020.3 mb - 0.00 in0.0 mm 0.01 in0.3 mm
06:10 AM 56.0°F13.3°C 46.7°F8.2°C 71% 4.6 mph SSW7.4 kmh SSW 5.8 mph9.3 kmh 30.13 in1020.3 mb - 0.00 in0.0 mm 0.01 in0.3 mm
06:00 AM 56.2°F13.4°C 46.9°F8.3°C 71% 3.5 mph SW5.6 kmh SW 6.9 mph11.1 kmh 30.13 in1020.3 mb - 0.00 in0.0 mm 0.01 in0.3 mm
05:50 AM 56.3°F13.5°C 46.7°F8.2°C 70% 4.6 mph SSW7.4 kmh SSW 5.8 mph9.3 kmh 30.13 in1020.3 mb - 0.00 in0.0 mm 0.01 in0.3 mm
05:40 AM 56.6°F13.7°C 46.5°F8.1°C 69% 4.6 mph SSW7.4 kmh SSW 5.8 mph9.3 kmh 30.13 in1020.3 mb - 0.00 in0.0 mm 0.01 in0.3 mm
05:30 AM 56.7°F13.7°C 46.6°F8.1°C 69% 6.9 mph SW11.1 kmh SW 9.2 mph14.8 kmh 30.13 in1020.3 mb - 0.00 in0.0 mm 0.01 in0.3 mm
05:20 AM 56.9°F13.8°C 46.4°F8.0°C 68% 5.8 mph SW9.3 kmh SW 8.1 mph13.0 kmh 30.13 in1020.3 mb - 0.00 in0.0 mm 0.01 in0.3 mm
05:10 AM 57.2°F14.0°C 46.8°F8.2°C 68% 5.8 mph SW9.3 kmh SW 8.1 mph13.0 kmh 30.13 in1020.3 mb - 0.00 in0.0 mm 0.01 in0.3 mm
05:00 AM 57.1°F13.9°C 47.0°F8.3°C 69% 6.9 mph SW11.1 kmh SW 9.2 mph14.8 kmh 30.14 in1020.7 mb - 0.00 in0.0 mm 0.01 in0.3 mm
04:50 AM 57.3°F14.1°C 47.2°F8.4°C 69% 4.6 mph WSW7.4 kmh WSW 6.9 mph11.1 kmh 30.14 in1020.7 mb - 0.00 in0.0 mm 0.01 in0.3 mm
04:40 AM 57.3°F14.1°C 47.3°F8.5°C 69% 5.8 mph SW9.3 kmh SW 8.1 mph13.0 kmh 30.14 in1020.7 mb - 0.00 in0.0 mm 0.01 in0.3 mm
04:30 AM 57.2°F14.0°C 47.1°F8.4°C 69% 4.6 mph SW7.4 kmh SW 6.9 mph11.1 kmh 30.14 in1020.7 mb - 0.00 in0.0 mm 0.01 in0.3 mm
04:20 AM 57.3°F14.1°C 47.2°F8.4°C 69% 1.2 mph S1.9 kmh S 1.2 mph1.9 kmh 30.14 in1020.7 mb - 0.00 in0.0 mm 0.01 in0.3 mm
04:10 AM 57.4°F14.1°C 46.9°F8.3°C 68% Calm Calm -- 30.15 in1021.0 mb - 0.00 in0.0 mm 0.01 in0.3 mm
04:00 AM 57.7°F14.3°C 47.2°F8.4°C 68% Calm Calm -- 30.15 in1021.0 mb - 0.00 in0.0 mm 0.01 in0.3 mm
03:50 AM 57.8°F14.3°C 47.3°F8.5°C 68% 4.6 mph W7.4 kmh W 4.6 mph7.4 kmh 30.15 in1021.0 mb - 0.00 in0.0 mm 0.01 in0.3 mm
03:40 AM 57.6°F14.2°C 47.1°F8.4°C 68% Calm Calm -- 30.16 in1021.3 mb - 0.00 in0.0 mm 0.01 in0.3 mm
03:30 AM 58.0°F14.4°C 46.7°F8.2°C 66% 1.2 mph NW1.9 kmh NW 5.8 mph9.3 kmh 30.16 in1021.3 mb - 0.00 in0.0 mm 0.01 in0.3 mm
03:20 AM 57.9°F14.4°C 46.2°F7.9°C 65% 5.8 mph SW9.3 kmh SW 6.9 mph11.1 kmh 30.16 in1021.3 mb - 0.00 in0.0 mm 0.01 in0.3 mm
03:10 AM 57.7°F14.3°C 46.0°F7.8°C 65% 5.8 mph SW9.3 kmh SW 6.9 mph11.1 kmh 30.16 in1021.3 mb - 0.00 in0.0 mm 0.01 in0.3 mm
03:00 AM 57.7°F14.3°C 46.1°F7.8°C 65% 4.6 mph SW7.4 kmh SW 8.1 mph13.0 kmh 30.16 in1021.3 mb - 0.00 in0.0 mm 0.01 in0.3 mm
02:50 AM 57.5°F14.2°C 46.2°F7.9°C 66% 5.8 mph SW9.3 kmh SW 8.1 mph13.0 kmh 30.16 in1021.3 mb - 0.00 in0.0 mm 0.01 in0.3 mm
02:40 AM 57.5°F14.2°C 45.8°F7.7°C 65% 6.9 mph SW11.1 kmh SW 9.2 mph14.8 kmh 30.16 in1021.3 mb - 0.00 in0.0 mm 0.01 in0.3 mm
02:30 AM 57.3°F14.1°C 46.0°F7.8°C 66% 5.8 mph SW9.3 kmh SW 8.1 mph13.0 kmh 30.17 in1021.7 mb - 0.00 in0.0 mm 0.01 in0.3 mm
02:20 AM 57.1°F13.9°C 46.2°F7.9°C 67% 5.8 mph SW9.3 kmh SW 8.1 mph13.0 kmh 30.16 in1021.3 mb - 0.00 in0.0 mm 0.01 in0.3 mm
02:10 AM 57.1°F13.9°C 45.9°F7.7°C 66% 4.6 mph SSW7.4 kmh SSW 6.9 mph11.1 kmh 30.17 in1021.7 mb - 0.00 in0.0 mm 0.01 in0.3 mm
02:00 AM 57.2°F14.0°C 46.0°F7.8°C 66% 4.6 mph SSW7.4 kmh SSW 6.9 mph11.1 kmh 30.17 in1021.7 mb - 0.00 in0.0 mm 0.01 in0.3 mm
01:50 AM 57.1°F13.9°C 45.8°F7.7°C 66% 5.8 mph SSW9.3 kmh SSW 8.1 mph13.0 kmh 30.17 in1021.7 mb - 0.00 in0.0 mm 0.01 in0.3 mm
01:40 AM 57.1°F13.9°C 45.8°F7.7°C 66% 5.8 mph SSW9.3 kmh SSW 6.9 mph11.1 kmh 30.17 in1021.7 mb - 0.00 in0.0 mm 0.01 in0.3 mm
01:30 AM 57.0°F13.9°C 45.7°F7.6°C 66% 5.8 mph SW9.3 kmh SW 6.9 mph11.1 kmh 30.17 in1021.7 mb - 0.00 in0.0 mm 0.01 in0.3 mm
01:20 AM 56.8°F13.8°C 45.6°F7.6°C 66% 5.8 mph SSW9.3 kmh SSW 8.1 mph13.0 kmh 30.17 in1021.7 mb - 0.00 in0.0 mm 0.01 in0.3 mm
01:10 AM 56.7°F13.7°C 45.5°F7.5°C 66% 4.6 mph SW7.4 kmh SW 6.9 mph11.1 kmh 30.17 in1021.7 mb - 0.00 in0.0 mm 0.01 in0.3 mm
01:00 AM 56.7°F13.7°C 45.4°F7.4°C 66% 5.8 mph SW9.3 kmh SW 6.9 mph11.1 kmh 30.17 in1021.7 mb - 0.00 in0.0 mm 0.01 in0.3 mm
12:50 AM 56.9°F13.8°C 46.0°F7.8°C 67% 4.6 mph SW7.4 kmh SW 6.9 mph11.1 kmh 30.18 in1022.0 mb - 0.00 in0.0 mm 0.01 in0.3 mm
12:40 AM 56.8°F13.8°C 46.0°F7.8°C 67% 2.3 mph S3.7 kmh S 5.8 mph9.3 kmh 30.18 in1022.0 mb - 0.00 in0.0 mm 0.01 in0.3 mm
12:30 AM 56.6°F13.7°C 45.8°F7.7°C 67% 4.6 mph SW7.4 kmh SW 8.1 mph13.0 kmh 30.18 in1022.0 mb - 0.00 in0.0 mm 0.01 in0.3 mm
12:20 AM 56.8°F13.8°C 46.0°F7.8°C 67% 3.5 mph SW5.6 kmh SW 8.1 mph13.0 kmh 30.19 in1022.4 mb - 0.00 in0.0 mm 0.01 in0.3 mm
12:10 AM 56.9°F13.8°C 46.0°F7.8°C 67% 5.8 mph SSW9.3 kmh SSW 6.9 mph11.1 kmh 30.19 in1022.4 mb - 0.00 in0.0 mm 0.01 in0.3 mm
12:00 AM 56.7°F13.7°C 45.9°F7.7°C 67% 5.8 mph SSW9.3 kmh SSW 6.9 mph11.1 kmh 30.19 in1022.4 mb - 0.01 in0.3 mm 0.01 in0.3 mm